Terminal Aerodrome Forecast
Issued by NWS

Home | Current Version | Previous Version | Text Only | Print | Product List | Glossary On
Versions: 1 2 3 4 5 6 7 8 9 10 11 12 13 14 15
000
FTAK31 PAJN 281100
TAFAGY
TAF
PAGY 281137Z 2812/2912 05015G22KT P6SM OVC045
     FM281400 04012G20KT P6SM BKN050 OVC070
     FM281800 04010KT 6SM -SN SCT015 BKN035 OVC050
     FM282100 04010KT 4SM -SN BKN025 OVC040
     FM290400 04010KT 6SM -SN BR BKN015 OVC040
      AMD LTD TO CLD VIS AND WIND=

USA.gov is the U.S. government's official web portal to all federal, state and local government web resources and services.